Berwick, IA (50032)

5:54 PM CDT on August 24, 2016 (GMT -0500)
APRSWXNET | | Change Station

Elev 918 ft 41.63 °N, 93.53 °W | Updated 32 minutes ago

Overcast
Overcast
80 °F
Feels Like 84 °F
N
0
Wind Variable Wind from NW
Gusts 0.0 mph

Today
High -- | Low -- °F
--% Chance of Precip.
Yesterday
High -- | Low -- °F
Precip. -- in
Pressure 29.95 in
Visibility 10.0 miles
Clouds Scattered Clouds 4300 ft
Mostly Cloudy 7500 ft
Mostly Cloudy 11000 ft
Heat Index 84 °F
Dew Point 72 °F
Humidity 78%
Rainfall in
Snow Depth Not available.
6:32 AM 7:59 PM
Waning Gibbous, 52% visible
SPECI KDSM 242223Z 28005KT 10SM -TSRA SCT043 BKN075 BKN110 27/22 A2995 RMK AO2 LTG DSNT SW AND W RAB04 TSE22B23 OCNL LTGICCG VC S-SW TS VC S-SW MOV NE P0000 T02670222
Pressure 29.95 in
Visibility 10.0 miles
Clouds Scattered Clouds 4300 ft
Mostly Cloudy 7500 ft
Mostly Cloudy 11000 ft
Heat Index 84 °F
Dew Point 72 °F
Humidity 78%
Rainfall in
Snow Depth Not available.
6:32 AM 7:59 PM
Waning Gibbous, 52% visible
SPECI KDSM 242223Z 28005KT 10SM -TSRA SCT043 BKN075 BKN110 27/22 A2995 RMK AO2 LTG DSNT SW AND W RAB04 TSE22B23 OCNL LTGICCG VC S-SW TS VC S-SW MOV NE P0000 T02670222

10-Day Weather Forecast

Almanac

Astronomy

Aug. 24, 2016 Rise Set
Actual Time
Civil Twilight
Nautical Twilight
Astronomical Twilight
Moon
Length of Visible Light
Length of Day
Tomorrow will be .
, % of the Moon is Illuminated

Today's Extremes

State Highs State Lows

Community

WunderPhotos

Upload Photos

1,934,728 photos uploaded!

WunderBlog® & News

Nearby

Air Quality

  Air Quality AQ Index Pollutant
Not available.

Snow Depth

Station Depth Elevation

Earthquake Activity

City Distance Mag. Time & Date
Minimum magnitude displayed is 2.5.

Coastal Water Temperatures

Place Temperature

Stations

Nearby Weather Stations

Station Location Temp. Windchill Dew Point Humidity Wind Precip. Elev Updated Type
                   

Watches & Warnings

There are currently no watches in effect.